BONES11 KHIF-
Flight info
| Callsign | BONES11 |
|---|---|
| Flight time | N/A |
| Altitude | |
| Route | |
| Aircraft | F18/L-DOV/C |
Departure
| Time | 2026-05-07 09:43 |
|---|---|
| Airport | Hill Air Force Base (KHIF) |
Arrival
| Time | N/A |
|---|---|
| Airport | - |
| Time | Latitude | Longitude | Altitude | Speed | Heading |
|---|---|---|---|---|---|
| 2026-05-07 09:43 | 41.18942 | -112.02538 | 5513 ft | 459 kts | 19° |
| 2026-05-07 09:43 | 41.22054 | -112.01178 | 5386 ft | 464 kts | 18° |
| 2026-05-07 09:43 | 41.25070 | -111.99988 | 6269 ft | 441 kts | 16° |
| 2026-05-07 09:43 | 41.27945 | -111.98800 | 6697 ft | 428 kts | 33° |
| 2026-05-07 09:44 | 41.29441 | -111.95696 | 6813 ft | 390 kts | 102° |
| 2026-05-07 09:44 | 41.27389 | -111.94445 | 5715 ft | 367 kts | 181° |
| 2026-05-07 09:44 | 41.24810 | -111.93952 | 5259 ft | 380 kts | 167° |
| 2026-05-07 09:44 | 41.24692 | -111.93918 | 5266 ft | 381 kts | 167° |
| 2026-05-07 09:45 | 41.22834 | -111.93451 | 5514 ft | 375 kts | 174° |
| 2026-05-07 09:45 | 41.20354 | -111.93865 | 6425 ft | 354 kts | 198° |
| 2026-05-07 09:45 | 41.18233 | -111.95472 | 6766 ft | 356 kts | 216° |
| 2026-05-07 09:46 | 41.16143 | -111.97289 | 6741 ft | 361 kts | 206° |
| 2026-05-07 09:46 | 41.13744 | -111.98362 | 6696 ft | 369 kts | 190° |
| 2026-05-07 09:46 | 41.11285 | -111.98154 | 7228 ft | 342 kts | 151° |
| 2026-05-07 09:46 | 41.10176 | -111.95487 | 6815 ft | 352 kts | 108° |
| 2026-05-07 09:47 | 41.08980 | -111.92760 | 6988 ft | 329 kts | 140° |
| 2026-05-07 09:47 | 41.07046 | -111.91731 | 7220 ft | 287 kts | 174° |
| 2026-05-07 09:47 | 41.05165 | -111.91469 | 7024 ft | 259 kts | 175° |
| 2026-05-07 09:47 | 41.03464 | -111.91286 | 6907 ft | 233 kts | 176° |
| 2026-05-07 09:48 | 41.01887 | -111.91090 | 6688 ft | 230 kts | 171° |
| 2026-05-07 09:48 | 41.00277 | -111.90649 | 6482 ft | 242 kts | 169° |
| 2026-05-07 09:48 | 40.98604 | -111.90602 | 6595 ft | 243 kts | 188° |
| 2026-05-07 09:48 | 40.96938 | -111.91311 | 6444 ft | 267 kts | 201° |
| 2026-05-07 09:49 | 40.95157 | -111.92393 | 6360 ft | 289 kts | 205° |
| 2026-05-07 09:49 | 40.93439 | -111.93535 | 6155 ft | 266 kts | 204° |
| 2026-05-07 09:49 | 40.91867 | -111.94614 | 5886 ft | 244 kts | 205° |
| 2026-05-07 09:49 | 40.90433 | -111.95600 | 5658 ft | 221 kts | 204° |